createdAt,value
2022-12-08T00:01:11.784Z,98816.19
2022-12-08T00:03:39.575Z,98834.06
2022-12-08T00:06:25.720Z,98840.94
2022-12-08T00:09:11.303Z,98839.25
2022-12-08T00:11:39.626Z,98842.72
2022-12-08T00:14:06.565Z,98847.84
2022-12-08T00:16:33.595Z,98847.84
2022-12-08T00:19:00.605Z,98852.03
2022-12-08T00:21:29.068Z,98856.25
2022-12-08T00:23:57.431Z,98855.38
2022-12-08T00:26:24.443Z,98849.28
2022-12-08T00:28:51.465Z,98847.50
2022-12-08T00:31:18.496Z,98852.59
2022-12-08T00:33:45.625Z,98855.94
2022-12-08T00:36:14.119Z,98857.50
2022-12-08T00:38:41.785Z,98853.25
2022-12-08T00:41:15.428Z,98866.00
2022-12-08T00:43:42.660Z,98865.94
2022-12-08T00:46:10.135Z,98863.38
2022-12-08T00:48:37.091Z,98871.06
2022-12-08T00:51:04.182Z,98859.97
2022-12-08T00:53:32.180Z,98866.72
2022-12-08T00:55:59.176Z,98871.84
2022-12-08T00:58:26.060Z,98877.00
2022-12-08T01:00:53.185Z,98873.63
2022-12-08T01:03:20.289Z,98884.72
2022-12-08T01:05:47.334Z,98883.91
2022-12-08T01:08:14.372Z,98894.19
2022-12-08T01:10:41.312Z,98893.38
2022-12-08T01:13:08.295Z,98895.94
2022-12-08T01:15:35.225Z,98893.31
2022-12-08T01:18:02.203Z,98895.81
2022-12-08T01:20:29.202Z,98898.34
2022-12-08T01:22:56.073Z,98897.50
2022-12-08T01:25:23.062Z,98897.50
2022-12-08T01:27:52.382Z,98900.81
2022-12-08T01:30:20.140Z,98910.22
2022-12-08T01:32:47.492Z,98909.44
2022-12-08T01:35:14.666Z,98909.50
2022-12-08T01:37:41.602Z,98919.78
2022-12-08T01:40:09.089Z,98923.13
2022-12-08T01:42:38.334Z,98923.97
2022-12-08T01:45:08.371Z,98920.56
2022-12-08T01:47:43.543Z,98930.88
2022-12-08T01:50:12.164Z,98925.88
2022-12-08T01:52:47.353Z,98929.38
2022-12-08T01:55:24.067Z,98930.25
2022-12-08T01:57:57.312Z,98925.13
2022-12-08T02:00:24.920Z,98926.81
2022-12-08T02:03:01.415Z,98940.41
2022-12-08T02:05:31.901Z,98939.66
2022-12-08T02:08:00.411Z,98934.63
2022-12-08T02:10:33.013Z,98933.81
2022-12-08T02:13:00.820Z,98940.72
2022-12-08T02:16:03.016Z,98939.91
2022-12-08T02:19:07.978Z,98948.50
2022-12-08T02:21:56.892Z,98945.22
2022-12-08T02:24:48.403Z,98945.31
2022-12-08T02:27:34.130Z,98941.97
2022-12-08T02:30:22.844Z,98947.16
2022-12-08T02:33:14.832Z,98939.53
2022-12-08T02:35:57.721Z,98941.25
2022-12-08T02:38:46.480Z,98944.66
2022-12-08T02:41:38.072Z,98936.06
2022-12-08T02:44:42.313Z,98945.44
2022-12-08T02:47:13.149Z,98937.69
2022-12-08T02:49:40.542Z,98939.31
2022-12-08T02:52:12.031Z,98944.34
2022-12-08T02:54:41.312Z,98949.41
2022-12-08T02:57:32.817Z,98956.16
2022-12-08T03:00:08.400Z,98952.75
2022-12-08T03:03:02.547Z,98955.31
2022-12-08T03:06:00.442Z,98955.31
2022-12-08T03:08:48.821Z,98952.75
2022-12-08T03:11:20.500Z,98951.03
2022-12-08T03:13:51.783Z,98948.47
2022-12-08T03:16:38.381Z,98946.84
2022-12-08T03:19:20.092Z,98959.66
2022-12-08T03:21:53.993Z,98951.13
2022-12-08T03:24:22.683Z,98955.41
2022-12-08T03:26:53.409Z,98956.25
2022-12-08T03:29:20.806Z,98957.03
2022-12-08T03:31:55.220Z,98956.03
2022-12-08T03:34:25.458Z,98961.97
2022-12-08T03:36:52.427Z,98960.25
2022-12-08T03:39:19.488Z,98957.72
2022-12-08T03:41:47.388Z,98961.16
2022-12-08T03:44:14.291Z,98959.41
2022-12-08T03:46:41.454Z,98965.25
2022-12-08T03:49:08.371Z,98958.31
2022-12-08T03:51:35.385Z,98960.91
2022-12-08T03:54:02.296Z,98967.00
2022-12-08T03:56:36.535Z,98967.13
2022-12-08T03:59:04.168Z,98968.97
2022-12-08T04:01:31.225Z,98967.34
2022-12-08T04:03:58.265Z,98965.66
2022-12-08T04:06:25.291Z,98974.25
2022-12-08T04:08:52.746Z,98975.09
2022-12-08T04:11:20.065Z,98965.72
2022-12-08T04:13:47.692Z,98969.13
2022-12-08T04:16:19.952Z,98971.63
2022-12-08T04:18:47.347Z,98965.66
2022-12-08T04:21:14.426Z,98969.97
2022-12-08T04:23:41.742Z,98972.56
2022-12-08T04:26:08.666Z,98974.28
2022-12-08T04:28:36.301Z,98977.69
2022-12-08T04:31:03.795Z,98978.59
2022-12-08T04:33:31.048Z,98971.81
2022-12-08T04:35:57.976Z,98975.25
2022-12-08T04:38:25.123Z,98978.69
2022-12-08T04:40:52.189Z,98981.28
2022-12-08T04:43:19.225Z,98980.44
2022-12-08T04:45:46.747Z,98983.00
2022-12-08T04:48:13.980Z,98978.72
2022-12-08T04:50:43.073Z,98984.72
2022-12-08T04:53:11.619Z,98980.38
2022-12-08T04:55:43.894Z,98986.34
2022-12-08T04:58:15.568Z,98984.50
2022-12-08T05:00:43.045Z,98989.53
2022-12-08T05:03:10.303Z,98990.31
2022-12-08T05:05:37.440Z,98997.13
2022-12-08T05:08:05.383Z,98991.19
2022-12-08T05:10:32.790Z,98998.06
2022-12-08T05:13:01.279Z,99004.06
2022-12-08T05:15:28.440Z,99007.53
2022-12-08T05:17:55.648Z,99005.84
2022-12-08T05:20:22.999Z,99006.78
2022-12-08T05:22:50.079Z,99000.81
2022-12-08T05:25:17.214Z,99007.69
2022-12-08T05:27:44.259Z,99011.13
2022-12-08T05:30:11.709Z,99008.56
2022-12-08T05:32:38.930Z,99009.34
2022-12-08T05:35:06.740Z,99003.22
2022-12-08T05:37:33.928Z,99005.69
2022-12-08T05:40:01.108Z,99007.28
2022-12-08T05:42:28.412Z,99009.69
2022-12-08T05:44:55.439Z,99025.88
2022-12-08T05:47:22.398Z,99029.31
2022-12-08T05:49:49.425Z,99021.75
2022-12-08T05:52:17.079Z,99031.22
2022-12-08T05:54:44.367Z,99030.50
2022-12-08T05:57:11.559Z,99032.16
2022-12-08T05:59:39.440Z,99033.69
2022-12-08T06:02:06.654Z,99034.34
2022-12-08T06:04:33.907Z,99032.47
2022-12-08T06:07:00.815Z,99029.84
2022-12-08T06:09:27.816Z,99026.38
2022-12-08T06:11:55.010Z,99032.34
2022-12-08T06:14:21.931Z,99040.78
2022-12-08T06:16:49.119Z,99044.09
2022-12-08T06:19:16.411Z,99046.63
2022-12-08T06:21:43.443Z,99046.72
2022-12-08T06:24:10.334Z,99054.63
2022-12-08T06:26:37.454Z,99059.03
2022-12-08T06:29:05.129Z,99063.47
2022-12-08T06:31:32.127Z,99069.59
2022-12-08T06:33:59.275Z,99072.28
2022-12-08T06:36:32.189Z,99065.50
2022-12-08T06:39:00.024Z,99075.78
2022-12-08T06:41:27.161Z,99077.56
2022-12-08T06:43:57.327Z,99080.16
2022-12-08T06:46:24.757Z,99079.28
2022-12-08T06:48:51.877Z,99076.72
2022-12-08T06:51:20.846Z,99069.88
2022-12-08T06:53:47.939Z,99081.91
2022-12-08T06:56:16.007Z,99080.19
2022-12-08T06:58:46.136Z,99088.72
2022-12-08T07:01:15.919Z,99086.16
2022-12-08T07:03:43.920Z,99093.00
2022-12-08T07:06:20.839Z,99095.50
2022-12-08T07:08:47.938Z,99100.63
2022-12-08T07:11:19.776Z,99104.81
2022-12-08T07:13:48.575Z,99108.13
2022-12-08T07:16:15.665Z,99115.78
2022-12-08T07:18:44.133Z,99114.00
2022-12-08T07:21:14.949Z,99119.91
2022-12-08T07:23:42.719Z,99120.72
2022-12-08T07:26:11.999Z,99125.66
2022-12-08T07:28:40.363Z,99127.19
2022-12-08T07:31:08.760Z,99121.03
2022-12-08T07:33:36.233Z,99134.53
2022-12-08T07:36:05.858Z,99132.72
2022-12-08T07:38:33.010Z,99130.94
2022-12-08T07:41:00.074Z,99133.47
2022-12-08T07:43:27.110Z,99130.91
2022-12-08T07:45:54.248Z,99132.53
2022-12-08T07:48:21.304Z,99130.06
2022-12-08T07:50:48.753Z,99140.38
2022-12-08T07:53:15.759Z,99140.41
2022-12-08T07:55:43.528Z,99143.91
2022-12-08T07:58:11.147Z,99142.22
2022-12-08T08:00:38.279Z,99144.75
2022-12-08T08:03:06.247Z,99151.47
2022-12-08T08:05:33.453Z,99146.38
2022-12-08T08:08:00.535Z,99145.53
2022-12-08T08:10:27.769Z,99151.69
2022-12-08T08:12:54.850Z,99145.84
2022-12-08T08:15:22.095Z,99145.16
2022-12-08T08:17:51.766Z,99146.88
2022-12-08T08:20:19.906Z,99140.03
2022-12-08T08:22:48.307Z,99148.56
2022-12-08T08:25:17.689Z,99148.56
2022-12-08T08:27:45.660Z,99163.94
2022-12-08T08:30:19.645Z,99166.53
2022-12-08T08:32:49.103Z,99163.09
2022-12-08T08:35:18.689Z,99164.72
2022-12-08T08:37:49.068Z,99169.84
2022-12-08T08:40:18.061Z,99180.91
2022-12-08T08:42:45.302Z,99186.81
2022-12-08T08:45:12.581Z,99186.78
2022-12-08T08:47:39.945Z,99206.50
2022-12-08T08:50:08.204Z,99209.19
2022-12-08T08:52:35.781Z,99209.31
2022-12-08T08:55:04.072Z,99216.22
2022-12-08T08:57:31.209Z,99217.16
2022-12-08T08:59:59.470Z,99218.03
2022-12-08T09:02:27.412Z,99209.56
2022-12-08T09:04:54.627Z,99223.25
2022-12-08T09:07:21.972Z,99221.63
2022-12-08T09:09:53.881Z,99214.81
2022-12-08T09:12:24.230Z,99221.66
2022-12-08T09:14:51.376Z,99217.44
2022-12-08T09:17:18.537Z,99206.38
2022-12-08T09:19:46.599Z,99209.00
2022-12-08T09:22:15.100Z,99209.06
2022-12-08T09:24:42.322Z,99204.88
2022-12-08T09:27:09.484Z,99206.69
2022-12-08T09:29:37.783Z,99198.25
2022-12-08T09:32:05.194Z,99191.47
2022-12-08T09:34:32.233Z,99193.16
2022-12-08T09:36:59.760Z,99187.91
2022-12-08T09:39:28.303Z,99193.84
2022-12-08T09:42:07.020Z,99184.47
2022-12-08T09:44:38.140Z,99188.81
2022-12-08T09:47:13.902Z,99187.03
2022-12-08T09:50:05.542Z,99178.50
2022-12-08T09:52:41.435Z,99167.31
2022-12-08T09:55:35.131Z,99175.84
2022-12-08T09:58:03.839Z,99170.69
2022-12-08T10:00:31.090Z,99177.47
2022-12-08T10:02:58.180Z,99168.13
2022-12-08T10:05:26.681Z,99171.63
2022-12-08T10:08:04.502Z,99174.25
2022-12-08T10:10:37.750Z,99171.69
2022-12-08T10:13:34.972Z,99169.13
2022-12-08T10:16:29.586Z,99165.78
2022-12-08T10:19:24.302Z,99169.25
2022-12-08T10:21:51.836Z,99166.69
2022-12-08T10:24:37.521Z,99165.84
2022-12-08T10:27:06.145Z,99165.00
2022-12-08T10:29:35.920Z,99169.34
2022-12-08T10:32:20.271Z,99165.16
2022-12-08T10:35:09.091Z,99158.38
2022-12-08T10:37:36.892Z,99156.66
2022-12-08T10:40:12.094Z,99159.28
2022-12-08T10:42:53.973Z,99162.88
2022-12-08T10:45:27.041Z,99148.44
2022-12-08T10:48:22.414Z,99148.41
2022-12-08T10:51:03.799Z,99150.97
2022-12-08T10:53:34.450Z,99141.59
2022-12-08T10:56:04.271Z,99151.75
2022-12-08T10:58:35.211Z,99151.75
2022-12-08T11:01:04.948Z,99155.28
2022-12-08T11:03:38.050Z,99150.19
2022-12-08T11:06:18.289Z,99163.06
2022-12-08T11:08:52.420Z,99156.28
2022-12-08T11:11:25.848Z,99146.91
2022-12-08T11:13:56.319Z,99142.69
2022-12-08T11:16:23.378Z,99140.13
2022-12-08T11:18:57.801Z,99138.41
2022-12-08T11:21:36.103Z,99137.63
2022-12-08T11:24:25.008Z,99129.94
2022-12-08T11:26:59.932Z,99132.50
2022-12-08T11:29:31.549Z,99126.44
2022-12-08T11:32:12.953Z,99124.66
2022-12-08T11:34:45.660Z,99128.06
2022-12-08T11:37:40.398Z,99129.78
2022-12-08T11:40:20.680Z,99122.94
2022-12-08T11:42:56.940Z,99122.09
2022-12-08T11:45:31.561Z,99121.16
2022-12-08T11:47:58.858Z,99126.28
2022-12-08T11:50:33.201Z,99126.28
2022-12-08T11:53:01.752Z,99124.59
2022-12-08T11:55:39.404Z,99128.88
2022-12-08T11:58:25.436Z,99119.53
2022-12-08T12:00:52.841Z,99108.50
2022-12-08T12:03:30.094Z,99115.47
2022-12-08T12:09:38.160Z,99101.09
2022-12-08T12:12:39.942Z,99099.25
2022-12-08T12:15:07.279Z,99103.47
2022-12-08T12:17:43.921Z,99103.38
2022-12-08T12:20:20.523Z,99100.72
2022-12-08T12:22:53.227Z,99101.44
2022-12-08T12:25:23.946Z,99103.06
2022-12-08T12:27:57.224Z,99102.06
2022-12-08T12:30:27.654Z,99095.16
2022-12-08T12:33:01.218Z,99095.97
2022-12-08T12:35:39.010Z,99089.16
2022-12-08T12:38:52.132Z,99089.88
2022-12-08T12:41:25.553Z,99091.66
2022-12-08T12:44:15.286Z,99089.06
2022-12-08T12:46:53.609Z,99090.72
2022-12-08T12:49:39.527Z,99088.22
2022-12-08T12:52:19.822Z,99089.84
2022-12-08T12:54:50.032Z,99097.47
2022-12-08T12:57:20.431Z,99085.44
2022-12-08T12:59:55.790Z,99085.41
2022-12-08T13:02:32.307Z,99082.78
2022-12-08T13:05:20.374Z,99075.09
2022-12-08T13:08:07.181Z,99081.09
2022-12-08T13:10:40.369Z,99073.44
2022-12-08T13:13:10.227Z,99076.03
2022-12-08T13:15:39.594Z,99071.81
2022-12-08T13:18:08.098Z,99078.66
2022-12-08T13:20:42.792Z,99088.97
2022-12-08T13:23:26.754Z,99082.06
2022-12-08T13:26:09.838Z,99085.56
2022-12-08T13:29:03.937Z,99089.84
2022-12-08T13:31:51.992Z,99081.28
2022-12-08T13:34:33.300Z,99082.16
2022-12-08T13:37:48.128Z,99075.31
2022-12-08T13:40:24.685Z,99083.00
2022-12-08T13:43:06.711Z,99081.28
2022-12-08T13:49:45.361Z,99091.53
2022-12-08T13:57:25.121Z,99096.53
2022-12-08T13:59:52.259Z,99086.28
2022-12-08T14:02:33.440Z,99084.53
2022-12-08T14:05:23.597Z,99081.09
2022-12-08T14:07:50.179Z,99073.41
2022-12-08T14:10:24.370Z,99081.09
2022-12-08T14:13:00.883Z,99077.66
2022-12-08T14:15:35.515Z,99075.97
2022-12-08T14:18:04.140Z,99074.22
2022-12-08T14:20:57.973Z,99070.75
2022-12-08T14:23:22.682Z,99077.63
2022-12-08T14:25:49.827Z,99075.94
2022-12-08T14:28:16.947Z,99055.41
2022-12-08T14:30:44.212Z,99039.97
2022-12-08T14:33:17.014Z,99054.44
2022-12-08T14:35:50.975Z,99034.78
2022-12-08T14:38:19.828Z,99038.19
2022-12-08T14:41:06.868Z,99037.31
2022-12-08T14:43:34.336Z,99041.53
2022-12-08T14:46:04.055Z,99047.53
2022-12-08T14:48:30.984Z,99050.09
2022-12-08T14:51:04.181Z,99054.41
2022-12-08T14:53:49.745Z,99071.44
2022-12-08T14:56:23.623Z,99059.47
2022-12-08T14:59:03.298Z,99062.06
2022-12-08T15:01:30.797Z,99063.75
2022-12-08T15:04:03.508Z,99053.50
2022-12-08T15:06:30.520Z,99051.78
2022-12-08T15:08:59.516Z,99040.66
2022-12-08T15:11:34.876Z,99041.47
2022-12-08T15:14:02.225Z,99032.94
2022-12-08T15:16:39.758Z,99040.50
2022-12-08T15:19:21.493Z,99043.06
2022-12-08T15:21:48.651Z,99031.06
2022-12-08T15:24:16.901Z,99039.50
2022-12-08T15:26:48.932Z,99040.31
2022-12-08T15:29:34.321Z,99037.78
2022-12-08T15:32:02.267Z,99043.75
2022-12-08T15:34:29.251Z,99036.13
2022-12-08T15:36:56.168Z,99031.88
2022-12-08T15:39:37.502Z,99035.28
2022-12-08T15:42:11.483Z,99031.03
2022-12-08T15:44:38.740Z,99036.13
2022-12-08T15:47:06.214Z,99029.25
2022-12-08T15:49:33.310Z,99025.88
2022-12-08T15:52:11.171Z,99031.03
2022-12-08T15:54:38.848Z,99029.41
2022-12-08T15:57:43.697Z,99027.72
2022-12-08T15:59:53.487Z,99033.75
2022-12-08T16:02:22.755Z,99031.19
2022-12-08T16:07:38.459Z,99021.72
2022-12-08T16:10:07.493Z,99022.56
2022-12-08T16:15:59.384Z,99024.34
2022-12-08T16:18:35.184Z,99015.00
2022-12-08T16:21:12.388Z,99012.50
2022-12-08T16:23:49.649Z,99007.47
2022-12-08T16:27:13.913Z,99012.59
2022-12-08T16:29:08.756Z,99010.88
2022-12-08T16:31:36.022Z,99005.75
2022-12-08T16:34:03.053Z,99009.16
2022-12-08T16:36:30.159Z,99012.66
2022-12-08T16:38:57.252Z,99016.09
2022-12-08T16:41:42.700Z,99008.41
2022-12-08T16:44:09.961Z,99011.84
2022-12-08T16:46:37.381Z,99011.03
2022-12-08T16:49:05.047Z,99007.63
2022-12-08T16:51:31.924Z,98998.25
2022-12-08T16:53:58.981Z,99002.53
2022-12-08T16:56:32.591Z,99003.34
2022-12-08T16:59:00.399Z,98998.16
2022-12-08T17:01:27.521Z,99004.97
2022-12-08T17:04:29.911Z,99006.69
2022-12-08T17:06:41.562Z,99002.44
2022-12-08T17:09:08.700Z,99004.13
2022-12-08T17:11:40.972Z,99004.13
2022-12-08T17:14:10.508Z,99000.63
2022-12-08T17:16:37.615Z,98999.72
2022-12-08T17:19:04.855Z,99004.84
2022-12-08T17:21:32.380Z,99010.72
2022-12-08T17:23:59.486Z,99014.13
2022-12-08T17:26:26.545Z,99013.31
2022-12-08T17:29:01.654Z,99006.59
2022-12-08T17:31:31.753Z,99016.94
2022-12-08T17:34:00.947Z,99023.75
2022-12-08T17:36:28.122Z,99017.78
2022-12-08T17:38:55.937Z,99019.44
2022-12-08T17:41:22.945Z,99015.16
2022-12-08T17:43:49.905Z,99020.25
2022-12-08T17:46:21.276Z,99021.03
2022-12-08T17:48:48.752Z,99020.09
2022-12-08T17:51:16.239Z,99026.00
2022-12-08T17:53:43.789Z,99027.72
2022-12-08T17:56:22.781Z,99027.72
2022-12-08T17:58:54.651Z,99023.50
2022-12-08T18:01:23.480Z,99031.22
2022-12-08T18:03:51.506Z,99027.84
2022-12-08T18:06:18.465Z,99032.91
2022-12-08T18:08:45.571Z,99040.66
2022-12-08T18:11:15.200Z,99038.13
2022-12-08T18:13:42.360Z,99032.25
2022-12-08T18:16:09.418Z,99029.75
2022-12-08T18:18:36.451Z,99025.53
2022-12-08T18:21:06.646Z,99028.13
2022-12-08T18:23:39.068Z,99046.13
2022-12-08T18:26:10.089Z,99044.41
2022-12-08T18:28:39.042Z,99046.97
2022-12-08T18:31:17.341Z,99042.66
2022-12-08T18:33:47.497Z,99052.03
2022-12-08T18:36:18.544Z,99056.28
2022-12-08T18:38:45.950Z,99058.00
2022-12-08T18:41:20.055Z,99063.97
2022-12-08T18:43:47.421Z,99056.28
2022-12-08T18:46:15.294Z,99046.00
2022-12-08T18:48:53.194Z,99047.69
2022-12-08T18:51:22.607Z,99046.00
2022-12-08T18:53:51.933Z,99051.16
2022-12-08T18:56:32.494Z,99051.19
2022-12-08T18:59:04.628Z,99048.72
2022-12-08T19:01:34.276Z,99052.13
2022-12-08T19:06:50.605Z,99050.41
2022-12-08T19:09:18.120Z,99059.81
2022-12-08T19:11:46.079Z,99058.97
2022-12-08T19:14:13.142Z,99059.88
2022-12-08T19:16:40.691Z,99062.50
2022-12-08T19:19:08.585Z,99059.97
2022-12-08T19:21:39.121Z,99057.38
2022-12-08T19:24:10.045Z,99059.09
2022-12-08T19:26:39.432Z,99070.19
2022-12-08T19:29:07.788Z,99071.97
2022-12-08T19:31:35.474Z,99069.44
2022-12-08T19:34:13.850Z,99068.56
2022-12-08T19:36:43.951Z,99070.22
2022-12-08T19:39:34.977Z,99067.56
2022-12-08T19:42:20.886Z,99070.03
2022-12-08T19:44:53.894Z,99080.16
2022-12-08T19:47:22.849Z,99077.47
2022-12-08T19:49:50.014Z,99087.59
2022-12-08T19:52:17.571Z,99090.06
2022-12-08T19:54:44.820Z,99091.69
2022-12-08T19:57:11.964Z,99086.44
2022-12-08T19:59:39.504Z,99083.66
2022-12-08T20:02:06.867Z,99089.31
2022-12-08T20:04:33.987Z,99093.31
2022-12-08T20:07:00.997Z,99095.63
2022-12-08T20:09:28.175Z,99094.44
2022-12-08T20:11:55.233Z,99106.88
2022-12-08T20:14:23.277Z,99104.84
2022-12-08T20:16:51.001Z,99112.19
2022-12-08T20:19:19.273Z,99113.66
2022-12-08T20:21:47.702Z,99117.84
2022-12-08T20:24:17.213Z,99128.00
2022-12-08T20:26:46.893Z,99122.84
2022-12-08T20:29:20.668Z,99123.75
2022-12-08T20:31:50.107Z,99123.81
2022-12-08T20:34:19.811Z,99132.31
2022-12-08T20:36:47.369Z,99131.50
2022-12-08T20:39:20.571Z,99139.16
2022-12-08T20:41:49.213Z,99137.34
2022-12-08T20:44:16.358Z,99138.91
2022-12-08T20:46:49.048Z,99138.81
2022-12-08T20:49:18.183Z,99146.22
2022-12-08T20:51:45.289Z,99140.06
2022-12-08T20:54:12.499Z,99134.72
2022-12-08T20:56:46.500Z,99144.75
2022-12-08T20:59:18.308Z,99147.19
2022-12-08T21:01:45.573Z,99150.34
2022-12-08T21:04:13.532Z,99147.59
2022-12-08T21:06:40.656Z,99155.94
2022-12-08T21:09:07.790Z,99159.25
2022-12-08T21:11:35.905Z,99171.31
2022-12-08T21:14:03.571Z,99168.13
2022-12-08T21:16:30.683Z,99171.72
2022-12-08T21:18:57.645Z,99183.03
2022-12-08T21:21:25.133Z,99192.41
2022-12-08T21:23:52.635Z,99185.59
2022-12-08T21:26:22.079Z,99194.16
2022-12-08T21:28:49.195Z,99197.69
2022-12-08T21:31:19.235Z,99206.34
2022-12-08T21:33:46.712Z,99210.75
2022-12-08T21:36:16.178Z,99206.56
2022-12-08T21:38:44.251Z,99212.66
2022-12-08T21:41:38.369Z,99205.94
2022-12-08T21:44:06.949Z,99210.19
2022-12-08T21:46:34.198Z,99215.28
2022-12-08T21:49:01.820Z,99217.06
2022-12-08T21:51:29.214Z,99222.31
2022-12-08T21:53:56.426Z,99218.97
2022-12-08T21:56:23.530Z,99228.44
2022-12-08T21:58:51.007Z,99213.09
2022-12-08T22:01:18.132Z,99219.81
2022-12-08T22:03:45.496Z,99213.81
2022-12-08T22:06:13.866Z,99209.44
2022-12-08T22:08:41.765Z,99222.06
2022-12-08T22:11:11.144Z,99220.34
2022-12-08T22:13:39.842Z,99224.63
2022-12-08T22:16:09.476Z,99228.03
2022-12-08T22:18:37.148Z,99224.59
2022-12-08T22:21:09.770Z,99222.81
2022-12-08T22:23:50.147Z,99222.78
2022-12-08T22:26:17.439Z,99228.72
2022-12-08T22:28:45.216Z,99232.97
2022-12-08T22:31:17.817Z,99229.56
2022-12-08T22:33:44.903Z,99239.06
2022-12-08T22:36:17.407Z,99247.75
2022-12-08T22:38:44.470Z,99252.03
2022-12-08T22:41:11.531Z,99246.00
2022-12-08T22:43:38.684Z,99240.81
2022-12-08T22:46:12.261Z,99249.28
2022-12-08T22:48:39.729Z,99238.22
2022-12-08T22:51:07.011Z,99244.13
2022-12-08T22:53:34.156Z,99248.28
2022-12-08T22:56:04.877Z,99258.53
2022-12-08T22:58:31.932Z,99244.06
2022-12-08T23:00:58.836Z,99251.72
2022-12-08T23:03:25.976Z,99252.56
2022-12-08T23:05:53.108Z,99257.59
2022-12-08T23:08:20.598Z,99263.59
2022-12-08T23:10:48.440Z,99255.84
2022-12-08T23:13:15.398Z,99253.19
2022-12-08T23:15:42.372Z,99255.50
2022-12-08T23:18:14.387Z,99257.03
2022-12-08T23:20:41.807Z,99265.72
2022-12-08T23:23:08.962Z,99271.88
2022-12-08T23:25:40.460Z,99271.88
2022-12-08T23:28:09.021Z,99266.66
2022-12-08T23:30:36.664Z,99257.06
2022-12-08T23:33:03.948Z,99270.53
2022-12-08T23:35:31.160Z,99272.22
2022-12-08T23:37:58.516Z,99273.00
2022-12-08T23:40:25.647Z,99272.91
2022-12-08T23:42:52.675Z,99277.25
2022-12-08T23:45:19.727Z,99277.41
2022-12-08T23:47:46.811Z,99279.88
2022-12-08T23:50:14.055Z,99286.59
2022-12-08T23:52:41.220Z,99282.44
2022-12-08T23:55:09.068Z,99282.38
2022-12-08T23:57:36.817Z,99286.72
